sensor_id;sensor_type;location;lat;lon;timestamp;P1;durP1;ratioP1;P2;durP2;ratioP2
24429;SDS011;12613;47.408;8.412;2023-07-24T19:38:38;4.05;;;3.22;;
24429;SDS011;12613;47.408;8.412;2023-07-24T19:42:19;54.67;;;6.95;;
24429;SDS011;12613;47.408;8.412;2023-07-24T19:44:45;57.72;;;6.75;;
24429;SDS011;12613;47.408;8.412;2023-07-24T19:47:10;55.10;;;6.38;;
24429;SDS011;12613;47.408;8.412;2023-07-24T20:21:12;55.28;;;7.95;;
24429;SDS011;12613;47.408;8.412;2023-07-24T20:23:38;56.83;;;6.93;;
24429;SDS011;12613;47.408;8.412;2023-07-24T20:26:03;53.60;;;6.45;;
24429;SDS011;12613;47.408;8.412;2023-07-24T20:28:29;50.47;;;5.57;;
24429;SDS011;12613;47.408;8.412;2023-07-24T20:30:55;49.78;;;6.53;;
24429;SDS011;12613;47.408;8.412;2023-07-24T20:33:20;47.05;;;5.60;;
24429;SDS011;12613;47.408;8.412;2023-07-24T20:35:46;42.33;;;4.95;;
24429;SDS011;12613;47.408;8.412;2023-07-24T20:38:22;40.08;;;5.00;;
24429;SDS011;12613;47.408;8.412;2023-07-24T20:40:49;25.02;;;4.20;;
24429;SDS011;12613;47.408;8.412;2023-07-24T20:43:15;15.50;;;4.40;;
24429;SDS011;12613;47.408;8.412;2023-07-24T20:45:41;30.58;;;4.20;;
24429;SDS011;12613;47.408;8.412;2023-07-24T20:48:07;20.48;;;5.45;;
24429;SDS011;12613;47.408;8.412;2023-07-24T20:50:39;64.93;;;6.28;;
24429;SDS011;12613;47.408;8.412;2023-07-24T20:53:05;51.50;;;6.30;;
24429;SDS011;12613;47.408;8.412;2023-07-24T20:55:31;32.30;;;5.63;;
24429;SDS011;12613;47.408;8.412;2023-07-24T20:57:57;30.50;;;4.90;;
24429;SDS011;12613;47.408;8.412;2023-07-24T21:00:22;30.98;;;5.55;;
24429;SDS011;12613;47.408;8.412;2023-07-24T21:02:48;28.75;;;5.00;;
24429;SDS011;12613;47.408;8.412;2023-07-24T21:05:14;24.63;;;5.03;;
24429;SDS011;12613;47.408;8.412;2023-07-24T21:07:40;25.63;;;5.05;;
24429;SDS011;12613;47.408;8.412;2023-07-24T21:10:08;5.78;;;4.40;;
24429;SDS011;12613;47.408;8.412;2023-07-24T21:12:37;17.77;;;4.75;;
24429;SDS011;12613;47.408;8.412;2023-07-24T21:15:03;20.95;;;4.50;;
24429;SDS011;12613;47.408;8.412;2023-07-24T21:17:29;20.63;;;5.20;;
24429;SDS011;12613;47.408;8.412;2023-07-24T21:19:54;12.85;;;5.63;;
24429;SDS011;12613;47.408;8.412;2023-07-24T21:22:20;18.55;;;4.90;;
24429;SDS011;12613;47.408;8.412;2023-07-24T21:24:46;8.07;;;4.57;;
24429;SDS011;12613;47.408;8.412;2023-07-24T21:27:11;7.32;;;5.57;;
24429;SDS011;12613;47.408;8.412;2023-07-24T21:29:37;11.23;;;5.78;;
24429;SDS011;12613;47.408;8.412;2023-07-24T21:32:03;5.97;;;4.50;;
24429;SDS011;12613;47.408;8.412;2023-07-24T21:34:29;11.18;;;5.57;;
24429;SDS011;12613;47.408;8.412;2023-07-24T21:36:55;6.90;;;4.70;;
24429;SDS011;12613;47.408;8.412;2023-07-24T21:39:20;7.57;;;5.25;;
24429;SDS011;12613;47.408;8.412;2023-07-24T21:41:46;6.88;;;5.55;;
24429;SDS011;12613;47.408;8.412;2023-07-24T21:44:12;8.18;;;5.13;;
24429;SDS011;12613;47.408;8.412;2023-07-24T21:46:37;8.52;;;4.97;;
24429;SDS011;12613;47.408;8.412;2023-07-24T21:49:03;11.52;;;5.68;;
24429;SDS011;12613;47.408;8.412;2023-07-24T21:51:28;6.72;;;5.15;;
24429;SDS011;12613;47.408;8.412;2023-07-24T21:53:54;13.43;;;5.88;;
24429;SDS011;12613;47.408;8.412;2023-07-24T21:56:20;7.00;;;4.95;;
24429;SDS011;12613;47.408;8.412;2023-07-24T21:58:46;6.85;;;5.07;;
24429;SDS011;12613;47.408;8.412;2023-07-24T22:01:12;11.35;;;4.88;;
24429;SDS011;12613;47.408;8.412;2023-07-24T22:03:38;5.88;;;4.70;;
24429;SDS011;12613;47.408;8.412;2023-07-24T22:06:04;7.05;;;5.18;;
24429;SDS011;12613;47.408;8.412;2023-07-24T22:08:31;7.65;;;5.43;;
24429;SDS011;12613;47.408;8.412;2023-07-24T22:10:57;8.82;;;5.50;;
24429;SDS011;12613;47.408;8.412;2023-07-24T22:13:22;7.65;;;5.22;;
24429;SDS011;12613;47.408;8.412;2023-07-24T22:15:48;8.55;;;5.28;;
24429;SDS011;12613;47.408;8.412;2023-07-24T22:18:14;9.23;;;5.68;;
24429;SDS011;12613;47.408;8.412;2023-07-24T22:20:40;6.65;;;4.72;;
24429;SDS011;12613;47.408;8.412;2023-07-24T22:23:06;7.90;;;5.55;;
24429;SDS011;12613;47.408;8.412;2023-07-24T22:25:31;7.90;;;5.45;;
24429;SDS011;12613;47.408;8.412;2023-07-24T22:27:57;5.90;;;5.07;;
24429;SDS011;12613;47.408;8.412;2023-07-24T22:30:22;7.07;;;5.15;;
24429;SDS011;12613;47.408;8.412;2023-07-24T22:32:48;8.90;;;5.10;;
24429;SDS011;12613;47.408;8.412;2023-07-24T22:35:14;10.68;;;5.82;;
24429;SDS011;12613;47.408;8.412;2023-07-24T22:37:39;10.43;;;5.60;;
24429;SDS011;12613;47.408;8.412;2023-07-24T22:40:05;7.93;;;5.75;;
24429;SDS011;12613;47.408;8.412;2023-07-24T22:42:31;5.90;;;5.30;;
24429;SDS011;12613;47.408;8.412;2023-07-24T22:44:57;7.53;;;5.18;;
24429;SDS011;12613;47.408;8.412;2023-07-24T22:47:22;7.03;;;5.80;;
24429;SDS011;12613;47.408;8.412;2023-07-24T22:49:48;6.07;;;5.40;;
24429;SDS011;12613;47.408;8.412;2023-07-24T22:52:14;8.65;;;5.72;;
24429;SDS011;12613;47.408;8.412;2023-07-24T22:54:39;7.35;;;5.10;;
24429;SDS011;12613;47.408;8.412;2023-07-24T22:57:05;9.20;;;6.53;;
24429;SDS011;12613;47.408;8.412;2023-07-24T22:59:31;6.63;;;5.22;;
24429;SDS011;12613;47.408;8.412;2023-07-24T23:01:57;12.32;;;5.82;;
24429;SDS011;12613;47.408;8.412;2023-07-24T23:04:23;9.25;;;5.57;;
24429;SDS011;12613;47.408;8.412;2023-07-24T23:06:53;6.95;;;5.13;;
24429;SDS011;12613;47.408;8.412;2023-07-24T23:09:20;10.00;;;5.32;;
24429;SDS011;12613;47.408;8.412;2023-07-24T23:11:45;6.57;;;5.38;;
24429;SDS011;12613;47.408;8.412;2023-07-24T23:14:11;7.13;;;5.00;;
24429;SDS011;12613;47.408;8.412;2023-07-24T23:16:37;7.75;;;5.22;;
24429;SDS011;12613;47.408;8.412;2023-07-24T23:19:02;7.53;;;5.10;;
24429;SDS011;12613;47.408;8.412;2023-07-24T23:21:28;7.05;;;4.93;;
24429;SDS011;12613;47.408;8.412;2023-07-24T23:23:54;8.55;;;5.20;;
24429;SDS011;12613;47.408;8.412;2023-07-24T23:26:19;6.20;;;4.93;;
24429;SDS011;12613;47.408;8.412;2023-07-24T23:28:45;6.75;;;5.85;;
24429;SDS011;12613;47.408;8.412;2023-07-24T23:31:11;6.22;;;4.65;;
24429;SDS011;12613;47.408;8.412;2023-07-24T23:33:37;9.10;;;5.80;;
24429;SDS011;12613;47.408;8.412;2023-07-24T23:36:03;10.75;;;5.95;;
24429;SDS011;12613;47.408;8.412;2023-07-24T23:38:32;6.40;;;5.38;;
24429;SDS011;12613;47.408;8.412;2023-07-24T23:41:00;9.65;;;5.95;;
24429;SDS011;12613;47.408;8.412;2023-07-24T23:43:27;7.38;;;4.80;;
24429;SDS011;12613;47.408;8.412;2023-07-24T23:45:52;9.38;;;6.25;;
24429;SDS011;12613;47.408;8.412;2023-07-24T23:48:18;7.13;;;5.38;;
24429;SDS011;12613;47.408;8.412;2023-07-24T23:50:44;9.45;;;6.05;;
24429;SDS011;12613;47.408;8.412;2023-07-24T23:53:10;6.32;;;4.82;;
24429;SDS011;12613;47.408;8.412;2023-07-24T23:55:36;7.13;;;5.43;;
24429;SDS011;12613;47.408;8.412;2023-07-24T23:58:01;8.55;;;4.68;;
